createdAt,value
2018-12-17T00:02:20.462Z,1.70
2018-12-17T00:04:46.602Z,1.70
2018-12-17T00:07:12.790Z,1.70
2018-12-17T00:09:38.980Z,1.70
2018-12-17T00:12:05.203Z,1.70
2018-12-17T00:14:31.433Z,1.70
2018-12-17T00:16:57.605Z,1.70
2018-12-17T00:19:23.763Z,1.70
2018-12-17T00:21:49.938Z,1.70
2018-12-17T00:24:16.100Z,1.70
2018-12-17T00:26:42.329Z,1.70
2018-12-17T00:29:08.508Z,1.70
2018-12-17T00:31:34.852Z,1.80
2018-12-17T00:34:01.056Z,1.80
2018-12-17T00:36:27.214Z,1.70
2018-12-17T00:38:53.394Z,1.80
2018-12-17T00:41:19.562Z,1.80
2018-12-17T00:43:45.918Z,1.70
2018-12-17T00:46:12.319Z,1.70
2018-12-17T00:48:38.584Z,1.70
2018-12-17T00:51:04.824Z,1.60
2018-12-17T00:53:30.932Z,1.60
2018-12-17T00:55:57.090Z,1.60
2018-12-17T00:58:23.185Z,1.60
2018-12-17T01:00:49.488Z,1.70
2018-12-17T01:03:15.688Z,1.70
2018-12-17T01:05:42.032Z,1.80
2018-12-17T01:08:08.262Z,1.80
2018-12-17T01:10:34.458Z,1.80
2018-12-17T01:13:00.636Z,1.80
2018-12-17T01:15:26.764Z,1.70
2018-12-17T01:17:52.904Z,1.80
2018-12-17T01:20:19.117Z,1.80
2018-12-17T01:22:45.242Z,1.70
2018-12-17T01:25:11.429Z,1.80
2018-12-17T01:27:37.553Z,1.70
2018-12-17T01:30:06.105Z,1.70
2018-12-17T01:32:32.624Z,1.70
2018-12-17T01:34:58.742Z,1.60
2018-12-17T01:37:24.850Z,1.70
2018-12-17T01:39:51.024Z,1.70
2018-12-17T01:42:17.184Z,1.70
2018-12-17T01:44:43.330Z,1.70
2018-12-17T01:47:09.530Z,1.70
2018-12-17T01:49:42.669Z,1.70
2018-12-17T01:52:08.801Z,1.70
2018-12-17T01:54:42.066Z,1.70
2018-12-17T01:57:08.261Z,1.70
2018-12-17T01:59:34.361Z,1.80
2018-12-17T02:02:00.562Z,1.80
2018-12-17T02:04:26.669Z,1.80
2018-12-17T02:06:52.797Z,1.80
2018-12-17T02:09:18.893Z,1.80
2018-12-17T02:11:45.049Z,1.90
2018-12-17T02:14:11.169Z,1.90
2018-12-17T02:16:44.315Z,1.90
2018-12-17T02:19:10.503Z,1.90
2018-12-17T02:21:36.827Z,2.00
2018-12-17T02:24:03.023Z,1.90
2018-12-17T02:26:29.353Z,1.90
2018-12-17T02:28:55.497Z,1.90
2018-12-17T02:31:21.642Z,1.90
2018-12-17T02:33:47.831Z,1.90
2018-12-17T02:36:14.011Z,1.90
2018-12-17T02:38:47.245Z,1.90
2018-12-17T02:41:13.445Z,1.90
2018-12-17T02:43:39.733Z,2.00
2018-12-17T02:46:05.870Z,1.90
2018-12-17T02:48:32.020Z,1.90
2018-12-17T02:50:58.183Z,2.00
2018-12-17T02:53:24.345Z,2.00
2018-12-17T02:55:50.516Z,2.10
2018-12-17T02:58:16.735Z,2.20
2018-12-17T03:00:42.973Z,2.10
2018-12-17T03:03:09.140Z,2.10
2018-12-17T03:05:35.423Z,2.10
2018-12-17T03:08:01.584Z,2.00
2018-12-17T03:10:27.770Z,2.00
2018-12-17T03:12:53.940Z,2.00
2018-12-17T03:15:20.281Z,2.10
2018-12-17T03:17:46.400Z,2.00
2018-12-17T03:20:12.610Z,2.00
2018-12-17T03:22:38.907Z,2.10
2018-12-17T03:25:05.324Z,2.10
2018-12-17T03:27:31.441Z,2.10
2018-12-17T03:29:57.803Z,2.10
2018-12-17T03:32:23.925Z,2.00
2018-12-17T03:34:50.128Z,2.00
2018-12-17T03:37:16.309Z,2.00
2018-12-17T03:39:42.421Z,2.00
2018-12-17T03:42:08.532Z,2.00
2018-12-17T03:44:34.630Z,1.90
2018-12-17T03:47:00.788Z,2.00
2018-12-17T03:49:27.046Z,1.90
2018-12-17T03:51:53.149Z,2.00
2018-12-17T03:54:19.253Z,2.00
2018-12-17T03:56:45.454Z,2.00
2018-12-17T03:59:11.647Z,2.00
2018-12-17T04:01:37.807Z,2.00
2018-12-17T04:04:04.026Z,2.10
2018-12-17T04:06:30.186Z,2.10
2018-12-17T04:08:56.380Z,2.00
2018-12-17T04:11:22.566Z,2.00
2018-12-17T04:13:48.704Z,2.00
2018-12-17T04:16:21.839Z,1.90
2018-12-17T04:18:47.998Z,2.00
2018-12-17T04:21:14.673Z,2.00
2018-12-17T04:23:40.817Z,2.00
2018-12-17T04:26:09.945Z,2.00
2018-12-17T04:28:36.129Z,2.10
2018-12-17T04:31:02.357Z,2.10
2018-12-17T04:33:28.476Z,2.00
2018-12-17T04:35:54.667Z,2.00
2018-12-17T04:38:20.865Z,2.10
2018-12-17T04:40:47.073Z,2.10
2018-12-17T04:43:13.275Z,2.20
2018-12-17T04:45:39.406Z,2.20
2018-12-17T04:48:05.638Z,2.20
2018-12-17T04:50:31.758Z,2.20
2018-12-17T04:52:57.900Z,2.20
2018-12-17T04:55:24.114Z,2.20
2018-12-17T04:57:50.509Z,2.20
2018-12-17T05:00:16.736Z,2.10
2018-12-17T05:02:42.832Z,2.20
2018-12-17T05:05:09.299Z,2.20
2018-12-17T05:07:35.465Z,2.20
2018-12-17T05:10:01.925Z,2.10
2018-12-17T05:12:28.061Z,2.20
2018-12-17T05:14:54.267Z,2.20
2018-12-17T05:17:20.429Z,2.20
2018-12-17T05:19:46.625Z,2.20
2018-12-17T05:22:12.775Z,2.20
2018-12-17T05:24:38.954Z,2.20
2018-12-17T05:27:05.106Z,2.20
2018-12-17T05:29:31.301Z,2.20
2018-12-17T05:31:57.438Z,2.30
2018-12-17T05:34:23.532Z,2.20
2018-12-17T05:36:49.642Z,2.20
2018-12-17T05:39:22.573Z,2.30
2018-12-17T05:41:48.758Z,2.30
2018-12-17T05:44:14.852Z,2.30
2018-12-17T05:46:40.972Z,2.30
2018-12-17T05:49:07.127Z,2.20
2018-12-17T05:51:33.298Z,2.20
2018-12-17T05:53:59.820Z,2.10
2018-12-17T05:56:32.978Z,2.20
2018-12-17T05:58:59.100Z,2.20
2018-12-17T06:01:25.226Z,2.30
2018-12-17T06:03:51.593Z,2.30
2018-12-17T06:06:17.782Z,2.30
2018-12-17T06:08:43.886Z,2.30
2018-12-17T06:11:10.034Z,2.30
2018-12-17T06:13:36.201Z,2.40
2018-12-17T06:16:02.470Z,2.30
2018-12-17T06:18:29.346Z,2.30
2018-12-17T06:20:56.058Z,2.20
2018-12-17T06:23:22.200Z,2.20
2018-12-17T06:25:48.462Z,2.20
2018-12-17T06:28:14.646Z,2.30
2018-12-17T06:30:40.756Z,2.30
2018-12-17T06:33:07.600Z,2.30
2018-12-17T06:35:33.812Z,2.30
2018-12-17T06:38:00.008Z,2.30
2018-12-17T06:40:26.117Z,2.30
2018-12-17T06:42:52.368Z,2.20
2018-12-17T06:45:18.576Z,2.20
2018-12-17T06:47:44.694Z,2.20
2018-12-17T06:50:10.992Z,2.20
2018-12-17T06:52:37.092Z,2.20
2018-12-17T06:55:03.569Z,2.30
2018-12-17T06:57:29.748Z,2.40
2018-12-17T06:59:55.956Z,2.40
2018-12-17T07:02:22.431Z,2.50
2018-12-17T07:04:55.586Z,2.40
2018-12-17T07:07:22.314Z,2.30
2018-12-17T07:09:48.562Z,2.30
2018-12-17T07:12:14.702Z,2.40
2018-12-17T07:14:40.854Z,2.30
2018-12-17T07:17:06.973Z,2.30
2018-12-17T07:19:33.158Z,2.30
2018-12-17T07:21:59.358Z,2.30
2018-12-17T07:24:25.619Z,2.30
2018-12-17T07:26:58.815Z,2.20
2018-12-17T07:29:24.959Z,2.30
2018-12-17T07:31:51.098Z,2.30
2018-12-17T07:34:17.261Z,2.30
2018-12-17T07:36:43.448Z,2.30
2018-12-17T07:39:09.575Z,2.30
2018-12-17T07:41:35.805Z,2.20
2018-12-17T07:44:01.930Z,2.30
2018-12-17T07:46:28.082Z,2.30
2018-12-17T07:48:54.269Z,2.30
2018-12-17T07:51:20.442Z,2.30
2018-12-17T07:53:46.541Z,2.30
2018-12-17T07:56:19.768Z,2.40
2018-12-17T07:58:45.992Z,2.40
2018-12-17T08:01:12.191Z,2.40
2018-12-17T08:03:38.593Z,2.50
2018-12-17T08:06:04.839Z,2.50
2018-12-17T08:08:35.460Z,2.50
2018-12-17T08:10:59.205Z,2.40
2018-12-17T08:13:25.838Z,2.40
2018-12-17T08:15:52.093Z,2.30
2018-12-17T08:18:22.514Z,2.30
2018-12-17T08:20:56.005Z,2.40
2018-12-17T08:23:22.146Z,2.40
2018-12-17T08:25:48.316Z,2.40
2018-12-17T08:28:14.595Z,2.40
2018-12-17T08:30:40.903Z,2.50
2018-12-17T08:33:07.179Z,2.50
2018-12-17T08:35:33.831Z,2.50
2018-12-17T08:37:59.920Z,2.50
2018-12-17T08:40:26.105Z,2.60
2018-12-17T08:42:52.257Z,2.60
2018-12-17T08:45:18.394Z,2.70
2018-12-17T08:47:44.505Z,2.70
2018-12-17T08:50:10.753Z,2.70
2018-12-17T08:52:36.885Z,2.70
2018-12-17T08:55:03.869Z,2.80
2018-12-17T08:57:30.101Z,2.80
2018-12-17T08:59:56.325Z,2.90
2018-12-17T09:02:22.491Z,2.90
2018-12-17T09:04:48.700Z,2.90
2018-12-17T09:07:14.933Z,2.90
2018-12-17T09:09:41.170Z,2.90
2018-12-17T09:12:14.289Z,3.00
2018-12-17T09:14:40.416Z,3.00
2018-12-17T09:17:06.637Z,2.90
2018-12-17T09:19:32.806Z,2.90
2018-12-17T09:21:58.965Z,2.90
2018-12-17T09:24:25.145Z,3.00
2018-12-17T09:26:51.474Z,3.00
2018-12-17T09:29:24.637Z,3.10
2018-12-17T09:31:50.805Z,3.10
2018-12-17T09:34:16.971Z,3.20
2018-12-17T09:36:43.133Z,3.20
2018-12-17T09:39:09.269Z,3.30
2018-12-17T09:41:35.451Z,3.30
2018-12-17T09:44:01.675Z,3.30
2018-12-17T09:46:27.820Z,3.40
2018-12-17T09:48:54.044Z,3.30
2018-12-17T09:51:20.243Z,3.20
2018-12-17T09:53:46.427Z,3.20
2018-12-17T09:56:12.889Z,3.20
2018-12-17T09:58:39.075Z,3.10
2018-12-17T10:01:05.248Z,3.00
2018-12-17T10:03:38.369Z,2.90
2018-12-17T10:06:04.533Z,2.90
2018-12-17T10:08:32.773Z,2.90
2018-12-17T10:10:58.968Z,2.90
2018-12-17T10:13:25.134Z,2.90
2018-12-17T10:15:58.264Z,3.00
2018-12-17T10:18:24.497Z,3.00
2018-12-17T10:20:50.630Z,3.00
2018-12-17T10:23:16.883Z,3.10
2018-12-17T10:25:43.132Z,3.20
2018-12-17T10:28:09.312Z,3.10
2018-12-17T10:30:35.495Z,3.10
2018-12-17T10:33:01.692Z,3.20
2018-12-17T10:35:27.846Z,3.20
2018-12-17T10:37:53.997Z,3.20
2018-12-17T10:40:20.309Z,3.20
2018-12-17T10:42:46.469Z,3.20
2018-12-17T10:45:12.602Z,3.20
2018-12-17T10:47:38.755Z,3.30
2018-12-17T10:50:05.667Z,3.30
2018-12-17T10:52:31.762Z,3.40
2018-12-17T10:54:57.879Z,3.40
2018-12-17T10:57:24.129Z,3.40
2018-12-17T10:59:50.312Z,3.40
2018-12-17T11:02:27.630Z,3.50
2018-12-17T11:04:55.636Z,3.40
2018-12-17T11:07:21.832Z,3.50
2018-12-17T11:09:48.171Z,3.60
2018-12-17T11:12:14.450Z,3.70
2018-12-17T11:14:40.727Z,3.80
2018-12-17T11:17:06.932Z,3.80
2018-12-17T11:19:33.072Z,3.80
2018-12-17T11:21:59.266Z,3.90
2018-12-17T11:24:25.407Z,3.80
2018-12-17T11:26:51.576Z,3.90
2018-12-17T11:29:17.767Z,3.90
2018-12-17T11:31:43.984Z,3.90
2018-12-17T11:34:10.141Z,3.90
2018-12-17T11:36:37.125Z,4.00
2018-12-17T11:39:06.747Z,4.00
2018-12-17T11:41:33.478Z,4.10
2018-12-17T11:43:59.586Z,4.30
2018-12-17T11:46:25.719Z,4.40
2018-12-17T11:48:51.900Z,4.50
2018-12-17T11:51:18.095Z,4.50
2018-12-17T11:53:44.264Z,4.70
2018-12-17T11:56:10.407Z,4.70
2018-12-17T11:58:36.599Z,4.60
2018-12-17T12:01:02.914Z,4.70
2018-12-17T12:03:30.525Z,4.80
2018-12-17T12:05:56.829Z,4.70
2018-12-17T12:08:22.983Z,4.80
2018-12-17T12:10:49.116Z,4.70
2018-12-17T12:13:15.253Z,4.70
2018-12-17T12:15:41.440Z,4.80
2018-12-17T12:18:14.526Z,4.90
2018-12-17T12:20:40.693Z,4.90
2018-12-17T12:23:06.988Z,5.00
2018-12-17T12:25:33.301Z,5.00
2018-12-17T12:27:59.501Z,5.00
2018-12-17T12:30:25.705Z,5.00
2018-12-17T12:32:51.958Z,5.10
2018-12-17T12:35:18.795Z,5.10
2018-12-17T12:37:51.784Z,5.20
2018-12-17T12:40:17.985Z,5.20
2018-12-17T12:42:51.334Z,5.30
2018-12-17T12:45:12.333Z,5.30
2018-12-17T12:47:38.515Z,5.30
2018-12-17T12:50:06.820Z,5.10
2018-12-17T12:52:32.945Z,5.10
2018-12-17T12:54:59.085Z,5.00
2018-12-17T12:57:25.248Z,5.00
2018-12-17T12:59:51.403Z,4.90
2018-12-17T13:02:17.542Z,4.90
2018-12-17T13:04:43.661Z,4.90
2018-12-17T13:07:09.825Z,4.80
2018-12-17T13:09:36.471Z,4.80
2018-12-17T13:12:02.732Z,4.80
2018-12-17T13:14:28.916Z,4.80
2018-12-17T13:16:55.374Z,4.80
2018-12-17T13:19:21.554Z,4.80
2018-12-17T13:21:47.747Z,4.80
2018-12-17T13:24:13.925Z,4.80
2018-12-17T13:26:40.155Z,4.90
2018-12-17T13:29:06.357Z,4.90
2018-12-17T13:31:32.531Z,4.80
2018-12-17T13:33:59.020Z,4.90
2018-12-17T13:36:25.250Z,4.90
2018-12-17T13:38:51.437Z,4.90
2018-12-17T13:41:17.643Z,4.90
2018-12-17T13:43:43.834Z,5.00
2018-12-17T13:46:09.989Z,5.00
2018-12-17T13:48:36.147Z,5.00
2018-12-17T13:51:08.504Z,5.00
2018-12-17T13:53:34.705Z,4.90
2018-12-17T13:56:00.840Z,4.90
2018-12-17T13:58:26.970Z,5.00
2018-12-17T14:00:53.461Z,5.00
2018-12-17T14:03:26.628Z,5.00
2018-12-17T14:05:52.805Z,4.90
2018-12-17T14:08:19.217Z,4.90
2018-12-17T14:10:50.327Z,4.90
2018-12-17T14:13:16.773Z,4.80
2018-12-17T14:15:49.291Z,4.80
2018-12-17T14:18:21.678Z,4.90
2018-12-17T14:20:54.138Z,4.90
2018-12-17T14:23:20.301Z,4.90
2018-12-17T14:25:46.752Z,4.90
2018-12-17T14:28:12.929Z,4.90
2018-12-17T14:30:39.087Z,4.90
2018-12-17T14:33:05.259Z,4.90
2018-12-17T14:35:31.452Z,4.80
2018-12-17T14:38:01.939Z,4.80
2018-12-17T14:40:28.845Z,4.80
2018-12-17T14:42:54.989Z,4.80
2018-12-17T14:45:21.183Z,4.70
2018-12-17T14:47:47.429Z,4.80
2018-12-17T14:50:13.771Z,4.70
2018-12-17T14:52:39.955Z,4.70
2018-12-17T14:55:13.073Z,4.70
2018-12-17T14:57:39.405Z,4.70
2018-12-17T15:00:10.627Z,4.70
2018-12-17T15:02:36.802Z,4.60
2018-12-17T15:05:05.811Z,4.60
2018-12-17T15:07:32.089Z,4.60
2018-12-17T15:09:58.306Z,4.60
2018-12-17T15:12:24.670Z,4.60
2018-12-17T15:14:50.860Z,4.60
2018-12-17T15:17:17.057Z,4.60
2018-12-17T15:19:43.422Z,4.60
2018-12-17T15:22:09.897Z,4.50
2018-12-17T15:24:40.425Z,4.50
2018-12-17T15:27:04.356Z,4.50
2018-12-17T15:29:30.621Z,4.50
2018-12-17T15:31:57.852Z,4.50
2018-12-17T15:34:24.230Z,4.50
2018-12-17T15:36:50.346Z,4.50
2018-12-17T15:39:16.491Z,4.50
2018-12-17T15:41:42.630Z,4.50
2018-12-17T15:44:08.822Z,4.50
2018-12-17T15:46:35.043Z,4.50
2018-12-17T15:49:01.164Z,4.40
2018-12-17T15:51:27.362Z,4.40
2018-12-17T15:53:53.509Z,4.40
2018-12-17T15:56:19.645Z,4.40
2018-12-17T15:58:45.884Z,4.40
2018-12-17T16:01:12.816Z,4.40
2018-12-17T16:03:45.924Z,4.30
2018-12-17T16:06:12.092Z,4.30
2018-12-17T16:08:38.248Z,4.20
2018-12-17T16:11:04.448Z,4.20
2018-12-17T16:13:30.636Z,4.20
2018-12-17T16:15:56.810Z,4.20
2018-12-17T16:18:23.042Z,4.20
2018-12-17T16:20:49.258Z,4.20
2018-12-17T16:23:15.451Z,4.20
2018-12-17T16:25:41.641Z,4.20
2018-12-17T16:28:07.942Z,4.20
2018-12-17T16:30:34.130Z,4.30
2018-12-17T16:33:00.313Z,4.30
2018-12-17T16:35:26.623Z,4.30
2018-12-17T16:37:52.799Z,4.20
2018-12-17T16:40:19.071Z,4.20
2018-12-17T16:42:45.268Z,4.20
2018-12-17T16:45:12.016Z,4.20
2018-12-17T16:47:38.257Z,4.20
2018-12-17T16:50:06.338Z,4.20
2018-12-17T16:52:32.542Z,4.30
2018-12-17T16:54:58.701Z,4.40
2018-12-17T16:57:24.878Z,4.30
2018-12-17T16:59:51.044Z,4.50
2018-12-17T17:02:24.197Z,4.40
2018-12-17T17:04:50.366Z,4.40
2018-12-17T17:07:16.535Z,4.30
2018-12-17T17:09:42.705Z,4.30
2018-12-17T17:12:08.902Z,4.20
2018-12-17T17:14:35.051Z,4.30
2018-12-17T17:17:01.565Z,4.30
2018-12-17T17:19:27.751Z,4.20
2018-12-17T17:21:53.917Z,4.30
2018-12-17T17:24:20.082Z,4.30
2018-12-17T17:26:46.265Z,4.30
2018-12-17T17:29:12.433Z,4.30
2018-12-17T17:31:38.605Z,4.30
2018-12-17T17:34:04.768Z,4.30
2018-12-17T17:36:30.919Z,4.30
2018-12-17T17:38:57.054Z,4.30
2018-12-17T17:41:23.159Z,4.30
2018-12-17T17:43:49.296Z,4.30
2018-12-17T17:46:15.451Z,4.30
2018-12-17T17:48:41.607Z,4.30
2018-12-17T17:51:07.817Z,4.30
2018-12-17T17:53:33.975Z,4.30
2018-12-17T17:56:00.067Z,4.20
2018-12-17T17:58:26.503Z,4.20
2018-12-17T18:00:52.637Z,4.20
2018-12-17T18:03:18.742Z,4.20
2018-12-17T18:05:51.836Z,4.10
2018-12-17T18:08:18.009Z,4.10
2018-12-17T18:10:44.193Z,4.10
2018-12-17T18:13:10.311Z,4.10
2018-12-17T18:15:36.512Z,4.10
2018-12-17T18:18:02.716Z,4.10
2018-12-17T18:20:29.822Z,4.20
2018-12-17T18:22:56.046Z,4.20
2018-12-17T18:25:22.338Z,4.20
2018-12-17T18:27:48.517Z,4.10
2018-12-17T18:30:14.765Z,4.10
2018-12-17T18:32:40.978Z,4.10
2018-12-17T18:35:07.330Z,4.00
2018-12-17T18:37:33.524Z,4.00
2018-12-17T18:39:59.688Z,4.00
2018-12-17T18:42:25.864Z,3.90
2018-12-17T18:44:52.060Z,4.00
2018-12-17T18:47:25.458Z,3.90
2018-12-17T18:49:46.458Z,3.90
2018-12-17T18:52:12.718Z,3.90
2018-12-17T18:54:38.848Z,3.90
2018-12-17T18:57:05.127Z,3.90
2018-12-17T18:59:31.235Z,3.90
2018-12-17T19:02:04.313Z,3.90
2018-12-17T19:04:30.493Z,3.90
2018-12-17T19:06:56.668Z,3.90
2018-12-17T19:09:22.828Z,3.90
2018-12-17T19:11:48.955Z,3.90
2018-12-17T19:14:22.068Z,3.90
2018-12-17T19:16:48.320Z,3.90
2018-12-17T19:19:14.485Z,3.90
2018-12-17T19:21:40.688Z,3.90
2018-12-17T19:24:06.838Z,3.90
2018-12-17T19:26:33.027Z,3.90
2018-12-17T19:28:59.625Z,3.90
2018-12-17T19:31:25.798Z,3.90
2018-12-17T19:33:51.963Z,3.90
2018-12-17T19:36:18.184Z,3.90
2018-12-17T19:38:44.367Z,3.90
2018-12-17T19:41:10.813Z,3.90
2018-12-17T19:43:38.582Z,3.90
2018-12-17T19:46:14.114Z,3.80
2018-12-17T19:48:43.005Z,3.70
2018-12-17T19:51:09.364Z,3.80
2018-12-17T19:53:35.533Z,3.80
2018-12-17T19:56:01.890Z,3.80
2018-12-17T19:58:28.080Z,3.80
2018-12-17T20:00:54.823Z,3.70
2018-12-17T20:03:21.804Z,3.70
2018-12-17T20:05:47.959Z,3.70
2018-12-17T20:08:14.187Z,3.80
2018-12-17T20:10:40.462Z,3.80
2018-12-17T20:13:06.614Z,3.80
2018-12-17T20:15:32.820Z,3.80
2018-12-17T20:17:59.096Z,3.90
2018-12-17T20:20:32.279Z,3.80
2018-12-17T20:22:58.463Z,3.90
2018-12-17T20:25:24.645Z,3.90
2018-12-17T20:27:50.809Z,3.80
2018-12-17T20:30:16.966Z,3.90
2018-12-17T20:32:43.340Z,3.90
2018-12-17T20:35:09.502Z,3.90
2018-12-17T20:37:35.730Z,3.90
2018-12-17T20:40:03.356Z,3.90
2018-12-17T20:42:29.806Z,3.90
2018-12-17T20:44:56.003Z,3.90
2018-12-17T20:47:22.198Z,3.90
2018-12-17T20:49:55.505Z,3.90
2018-12-17T20:52:21.731Z,3.90
2018-12-17T20:54:47.931Z,3.90
2018-12-17T20:57:14.075Z,3.80
2018-12-17T20:59:40.257Z,3.80
2018-12-17T21:02:06.363Z,3.80
2018-12-17T21:04:32.526Z,3.80
2018-12-17T21:06:58.661Z,3.80
2018-12-17T21:09:24.905Z,3.80
2018-12-17T21:11:52.531Z,3.80
2018-12-17T21:14:23.634Z,3.70
2018-12-17T21:16:47.669Z,3.70
2018-12-17T21:19:13.834Z,3.70
2018-12-17T21:21:40.046Z,3.70
2018-12-17T21:24:06.242Z,3.60
2018-12-17T21:26:32.406Z,3.70
2018-12-17T21:28:58.553Z,3.70
2018-12-17T21:31:24.799Z,3.60
2018-12-17T21:33:50.982Z,3.60
2018-12-17T21:36:17.122Z,3.60
2018-12-17T21:38:43.280Z,3.50
2018-12-17T21:41:09.530Z,3.50
2018-12-17T21:43:36.198Z,3.60
2018-12-17T21:46:02.737Z,3.60
2018-12-17T21:48:28.901Z,3.60
2018-12-17T21:50:55.174Z,3.60
2018-12-17T21:53:21.527Z,3.60
2018-12-17T21:55:47.654Z,3.60
2018-12-17T21:58:13.884Z,3.50
2018-12-17T22:00:40.026Z,3.60
2018-12-17T22:03:06.183Z,3.70
2018-12-17T22:05:32.370Z,3.80
2018-12-17T22:07:58.577Z,3.80
2018-12-17T22:10:24.850Z,3.80
2018-12-17T22:12:50.999Z,3.80
2018-12-17T22:15:17.160Z,3.70
2018-12-17T22:17:43.393Z,3.80
2018-12-17T22:20:09.579Z,3.90
2018-12-17T22:22:35.721Z,3.80
2018-12-17T22:25:02.000Z,3.80
2018-12-17T22:27:28.152Z,3.80
2018-12-17T22:29:54.380Z,3.80
2018-12-17T22:32:20.522Z,3.80
2018-12-17T22:34:46.693Z,3.90
2018-12-17T22:37:12.866Z,3.80
2018-12-17T22:39:39.027Z,3.80
2018-12-17T22:42:05.167Z,3.90
2018-12-17T22:44:31.348Z,3.90
2018-12-17T22:46:57.482Z,3.90
2018-12-17T22:49:23.589Z,3.90
2018-12-17T22:51:49.778Z,4.00
2018-12-17T22:54:15.911Z,4.00
2018-12-17T22:56:42.130Z,4.00
2018-12-17T22:59:08.231Z,3.90
2018-12-17T23:01:34.458Z,4.00
2018-12-17T23:04:00.572Z,4.00
2018-12-17T23:06:26.726Z,3.90
2018-12-17T23:09:03.695Z,3.90
2018-12-17T23:11:48.521Z,3.90
2018-12-17T23:14:26.994Z,3.80
2018-12-17T23:17:05.293Z,3.90
2018-12-17T23:19:38.042Z,3.80
2018-12-17T23:22:04.156Z,3.80
2018-12-17T23:24:30.334Z,3.80
2018-12-17T23:26:56.506Z,3.90
2018-12-17T23:29:22.839Z,3.90
2018-12-17T23:31:51.570Z,3.90
2018-12-17T23:34:17.892Z,3.90
2018-12-17T23:36:44.074Z,4.00
2018-12-17T23:39:10.281Z,4.00
2018-12-17T23:41:43.329Z,4.00
2018-12-17T23:44:09.620Z,4.00
2018-12-17T23:46:35.759Z,4.00
2018-12-17T23:49:01.938Z,4.00
2018-12-17T23:51:28.039Z,3.90
2018-12-17T23:53:54.236Z,3.90
2018-12-17T23:56:20.363Z,3.90
2018-12-17T23:58:47.186Z,3.90
